Terminal Aerodrome Forecast
Issued by NWS

Home | Current Version | Previous Version | Text Only | Print | Product List | Glossary On
Versions: 1 2 3 4 5 6 7 8 9 10 11 12 13 14 15 16 17 18 19 20
000
FTUS41 KALY 301733
TAFPSF
TAF
KPSF 301733Z 3018/3118 22009KT P6SM VCSH OVC035
     FM302200 27015G25KT 2SM -SN BKN020 OVC030
     FM310200 28012G22KT P6SM BKN020
     FM310800 29010KT P6SM BKN015
     FM311600 28007KT P6SM BKN100 OVC200=

USA.gov is the U.S. government's official web portal to all federal, state and local government web resources and services.